createdAt,value
2024-03-26T00:03:51.066Z,66.25
2024-03-26T00:08:53.786Z,61.50
2024-03-26T00:13:57.916Z,54.69
2024-03-26T00:19:00.641Z,59.18
2024-03-26T00:24:03.344Z,66.28
2024-03-26T00:29:06.890Z,58.25
2024-03-26T00:34:09.645Z,55.52
2024-03-26T00:39:12.398Z,60.39
2024-03-26T00:44:15.076Z,67.71
2024-03-26T00:49:17.827Z,57.21
2024-03-26T00:54:22.165Z,55.50
2024-03-26T00:59:26.110Z,59.72
2024-03-26T01:04:28.846Z,67.71
2024-03-26T01:09:31.539Z,57.80
2024-03-26T01:14:34.231Z,54.56
2024-03-26T01:19:36.910Z,59.64
2024-03-26T01:24:39.907Z,68.72
2024-03-26T01:29:42.663Z,59.06
2024-03-26T01:34:45.366Z,55.16
2024-03-26T01:39:48.158Z,59.86
2024-03-26T01:44:50.870Z,61.75
2024-03-26T01:49:56.004Z,71.83
2024-03-26T01:54:59.882Z,62.36
2024-03-26T02:00:04.216Z,54.37
2024-03-26T02:05:07.290Z,58.76
2024-03-26T02:10:10.136Z,62.33
2024-03-26T02:15:12.875Z,70.55
2024-03-26T02:20:16.356Z,56.01
2024-03-26T02:25:19.004Z,54.79
2024-03-26T02:30:21.778Z,59.94
2024-03-26T02:35:24.491Z,60.26
2024-03-26T02:40:27.324Z,69.80
2024-03-26T02:45:30.265Z,59.97
2024-03-26T02:50:32.956Z,56.09
2024-03-26T02:55:35.643Z,60.35
2024-03-26T03:00:38.372Z,68.52
2024-03-26T03:05:41.862Z,57.59
2024-03-26T03:10:44.555Z,56.39
2024-03-26T03:15:47.247Z,60.67
2024-03-26T03:20:50.173Z,68.36
2024-03-26T03:25:57.374Z,59.72
2024-03-26T03:31:00.071Z,55.04
2024-03-26T03:36:02.796Z,59.42
2024-03-26T03:41:05.533Z,60.63
2024-03-26T03:46:08.240Z,70.78
2024-03-26T03:51:10.936Z,61.47
2024-03-26T03:56:13.631Z,54.50
2024-03-26T04:01:16.333Z,58.28
2024-03-26T04:06:19.045Z,60.47
2024-03-26T04:11:21.778Z,71.44
2024-03-26T04:16:24.669Z,63.52
2024-03-26T04:21:27.398Z,55.03
2024-03-26T04:26:30.149Z,58.85
2024-03-26T04:31:32.826Z,67.65
2024-03-26T04:36:35.518Z,57.29
2024-03-26T04:41:38.436Z,55.23
2024-03-26T04:46:41.146Z,58.81
2024-03-26T04:51:43.831Z,61.51
2024-03-26T04:56:46.517Z,69.34
2024-03-26T05:01:49.758Z,56.13
2024-03-26T05:06:52.459Z,55.06
2024-03-26T05:11:55.865Z,59.07
2024-03-26T05:16:58.636Z,68.63
2024-03-26T05:22:01.457Z,58.93
2024-03-26T05:27:04.287Z,53.55
2024-03-26T05:32:06.972Z,57.90
2024-03-26T05:37:09.658Z,60.10
2024-03-26T05:42:12.487Z,69.44
2024-03-26T05:47:15.253Z,63.50
2024-03-26T05:52:17.928Z,53.20
2024-03-26T05:57:20.736Z,55.49
2024-03-26T06:02:23.421Z,58.96
2024-03-26T06:07:26.127Z,60.70
2024-03-26T06:12:28.911Z,70.42
2024-03-26T06:17:31.747Z,63.38
2024-03-26T06:22:34.989Z,53.47
2024-03-26T06:27:37.668Z,54.91
2024-03-26T06:32:40.774Z,58.34
2024-03-26T06:37:43.609Z,60.06
2024-03-26T06:42:46.349Z,61.01
2024-03-26T06:47:49.483Z,69.14
2024-03-26T06:52:52.331Z,59.72
2024-03-26T06:57:55.156Z,54.79
2024-03-26T07:02:58.532Z,57.24
2024-03-26T07:08:02.775Z,64.31
2024-03-26T07:13:09.399Z,64.88
2024-03-26T07:18:16.201Z,55.24
2024-03-26T07:23:22.205Z,58.28
2024-03-26T07:28:26.591Z,60.89
2024-03-26T07:33:31.014Z,68.99
2024-03-26T07:38:35.273Z,59.24
2024-03-26T07:43:38.771Z,55.49
2024-03-26T07:48:41.399Z,58.69
2024-03-26T07:53:44.282Z,59.16
2024-03-26T07:58:47.384Z,61.65
2024-03-26T08:03:51.045Z,69.01
2024-03-26T08:08:55.319Z,56.74
2024-03-26T08:13:58.681Z,54.77
2024-03-26T08:19:01.689Z,59.14
2024-03-26T08:24:07.443Z,59.25
2024-03-26T08:29:10.199Z,64.70
2024-03-26T08:34:12.939Z,51.52
2024-03-26T08:39:15.691Z,52.04
2024-03-26T08:44:18.452Z,57.48
2024-03-26T08:49:21.273Z,61.89
2024-03-26T08:54:24.483Z,47.11
2024-03-26T08:59:27.308Z,48.33
2024-03-26T09:04:30.362Z,52.08
2024-03-26T09:09:33.509Z,53.56
2024-03-26T09:14:36.929Z,57.95
2024-03-26T09:19:39.896Z,58.18
2024-03-26T09:24:50.419Z,49.29
2024-03-26T09:29:54.049Z,48.90
2024-03-26T09:34:56.798Z,52.77
2024-03-26T09:39:59.487Z,53.32
2024-03-26T09:45:06.122Z,54.39
2024-03-26T09:50:12.153Z,62.55
2024-03-26T09:55:17.525Z,52.38
2024-03-26T10:00:21.352Z,50.22
2024-03-26T10:05:25.919Z,51.56
2024-03-26T10:10:32.955Z,55.91
2024-03-26T10:15:36.166Z,56.38
2024-03-26T10:20:39.756Z,54.91
2024-03-26T10:25:42.523Z,56.24
2024-03-26T10:30:46.277Z,57.15
2024-03-26T10:35:55.814Z,58.70
2024-03-26T10:41:04.086Z,55.84
2024-03-26T10:46:08.360Z,59.01
2024-03-26T10:51:12.733Z,57.93
2024-03-26T10:56:16.865Z,56.08
2024-03-26T11:01:22.538Z,55.42
2024-03-26T11:06:29.632Z,54.67
2024-03-26T11:11:45.839Z,54.92
2024-03-26T11:22:15.577Z,56.38
2024-03-26T11:27:18.433Z,55.70
2024-03-26T11:32:22.516Z,52.68
2024-03-26T11:37:26.046Z,53.61
2024-03-26T11:42:28.979Z,54.54
2024-03-26T11:47:35.751Z,53.04
2024-03-26T11:52:39.863Z,55.98
2024-03-26T11:57:44.098Z,55.87
2024-03-26T12:02:47.505Z,57.51
2024-03-26T12:07:52.655Z,56.37
2024-03-26T12:12:56.229Z,54.31
2024-03-26T12:17:59.284Z,55.74
2024-03-26T12:23:05.858Z,54.63
2024-03-26T12:28:13.611Z,55.39
2024-03-26T12:33:16.455Z,49.36
2024-03-26T12:38:19.258Z,49.90
2024-03-26T12:43:21.853Z,53.50
2024-03-26T12:48:24.761Z,52.93
2024-03-26T12:53:28.806Z,53.39
2024-03-26T12:58:31.860Z,54.31
2024-03-26T13:03:34.955Z,51.86
2024-03-26T13:08:37.777Z,51.54
2024-03-26T13:13:42.381Z,50.82
2024-03-26T13:18:45.076Z,49.37
2024-03-26T13:23:48.155Z,52.30
2024-03-26T13:28:50.876Z,49.25
2024-03-26T13:33:54.486Z,48.96
2024-03-26T13:38:57.237Z,50.58
2024-03-26T13:44:00.584Z,51.42
2024-03-26T13:49:04.038Z,51.97
2024-03-26T13:54:06.967Z,52.03
2024-03-26T13:59:09.581Z,49.65
2024-03-26T14:04:12.429Z,50.37
2024-03-26T14:09:15.861Z,50.36
2024-03-26T14:14:19.138Z,51.32
2024-03-26T14:19:21.995Z,51.60
2024-03-26T14:24:25.353Z,51.37
2024-03-26T14:29:28.115Z,51.72
2024-03-26T14:34:32.097Z,51.04
2024-03-26T14:39:35.340Z,52.31
2024-03-26T14:44:37.915Z,52.93
2024-03-26T14:49:40.647Z,53.27
2024-03-26T14:54:43.795Z,52.01
2024-03-26T14:59:46.694Z,53.15
2024-03-26T15:04:49.704Z,51.22
2024-03-26T15:09:52.918Z,50.99
2024-03-26T15:14:55.620Z,48.94
2024-03-26T15:19:58.910Z,50.20
2024-03-26T15:25:02.093Z,47.68
2024-03-26T15:30:26.453Z,48.48
2024-03-26T15:35:29.467Z,46.29
2024-03-26T15:40:32.368Z,48.79
2024-03-26T15:45:35.488Z,49.20
2024-03-26T15:50:38.399Z,44.69
2024-03-26T15:55:41.115Z,47.43
2024-03-26T16:00:43.893Z,46.21
2024-03-26T16:05:46.881Z,44.20
2024-03-26T16:11:08.280Z,46.15
2024-03-26T16:16:14.088Z,45.54
2024-03-26T16:21:17.106Z,46.74
2024-03-26T16:26:20.060Z,45.03
2024-03-26T16:31:24.132Z,46.37
2024-03-26T16:36:27.713Z,47.39
2024-03-26T16:41:34.169Z,48.78
2024-03-26T16:46:38.509Z,50.13
2024-03-26T16:51:44.254Z,51.21
2024-03-26T16:56:47.043Z,52.16
2024-03-26T17:01:49.847Z,53.20
2024-03-26T17:06:52.953Z,53.42
2024-03-26T17:11:56.066Z,54.76
2024-03-26T17:17:09.565Z,54.50
2024-03-26T17:22:17.275Z,56.35
2024-03-26T17:27:20.243Z,57.33
2024-03-26T17:32:23.068Z,56.99
2024-03-26T17:37:26.248Z,57.04
2024-03-26T17:42:33.463Z,57.26
2024-03-26T17:47:36.412Z,58.06
2024-03-26T17:52:39.233Z,58.71
2024-03-26T17:57:42.469Z,58.79
2024-03-26T18:02:49.571Z,58.98
2024-03-26T18:07:52.479Z,59.31
2024-03-26T18:12:55.711Z,59.62
2024-03-26T18:17:58.406Z,60.02
2024-03-26T18:23:01.190Z,60.63
2024-03-26T18:28:05.024Z,60.85
2024-03-26T18:33:08.785Z,61.10
2024-03-26T18:38:14.504Z,65.97
2024-03-26T18:43:17.307Z,56.85
2024-03-26T18:48:21.084Z,51.64
2024-03-26T18:53:25.218Z,53.61
2024-03-26T18:58:29.609Z,56.03
2024-03-26T19:03:32.815Z,57.01
2024-03-26T19:08:35.817Z,58.38
2024-03-26T19:13:38.620Z,59.39
2024-03-26T19:18:41.831Z,59.74
2024-03-26T19:23:44.939Z,60.32
2024-03-26T19:28:47.847Z,60.56
2024-03-26T19:33:50.649Z,61.20
2024-03-26T19:38:53.451Z,61.38
2024-03-26T19:43:56.249Z,68.87
2024-03-26T19:48:59.772Z,62.82
2024-03-26T19:54:02.577Z,50.79
2024-03-26T19:59:05.367Z,51.12
2024-03-26T20:04:09.609Z,53.62
2024-03-26T20:09:12.521Z,56.52
2024-03-26T20:14:15.720Z,57.81
2024-03-26T20:19:18.828Z,59.79
2024-03-26T20:24:21.939Z,60.98
2024-03-26T20:29:24.843Z,67.28
2024-03-26T20:34:29.556Z,55.30
2024-03-26T20:39:32.488Z,52.65
2024-03-26T20:44:37.455Z,55.30
2024-03-26T20:49:40.854Z,58.18
2024-03-26T20:54:43.661Z,59.41
2024-03-26T20:59:46.468Z,60.01
2024-03-26T21:04:49.277Z,61.51
2024-03-26T21:09:52.370Z,62.41
2024-03-26T21:14:55.298Z,69.56
2024-03-26T21:20:13.645Z,56.42
2024-03-26T21:25:16.662Z,50.62
2024-03-26T21:30:19.451Z,53.47
2024-03-26T21:35:23.477Z,55.39
2024-03-26T21:40:26.601Z,57.29
2024-03-26T21:45:29.233Z,59.87
2024-03-26T21:50:32.085Z,60.35
2024-03-26T21:55:35.604Z,68.38
2024-03-26T22:00:38.401Z,60.30
2024-03-26T22:05:41.715Z,50.78
2024-03-26T22:10:44.477Z,53.12
2024-03-26T22:15:47.521Z,56.61
2024-03-26T22:20:54.562Z,57.79
2024-03-26T22:26:09.012Z,60.29
2024-03-26T22:31:12.215Z,61.63
2024-03-26T22:36:15.317Z,70.87
2024-03-26T22:41:18.422Z,59.77
2024-03-26T22:46:21.231Z,50.99
2024-03-26T22:51:24.138Z,52.19
2024-03-26T22:56:27.549Z,55.39
2024-03-26T23:01:30.347Z,57.46
2024-03-26T23:06:33.147Z,58.16
2024-03-26T23:11:36.053Z,60.85
2024-03-26T23:16:38.806Z,69.17
2024-03-26T23:21:43.511Z,63.28
2024-03-26T23:26:46.301Z,50.93
2024-03-26T23:31:49.409Z,52.10
2024-03-26T23:36:52.214Z,54.29
2024-03-26T23:41:55.010Z,56.64
2024-03-26T23:46:57.817Z,58.52
2024-03-26T23:52:00.841Z,59.65
2024-03-26T23:57:03.764Z,61.29
